createdAt,value
2023-04-16T00:01:35.782Z,100753.34
2023-04-16T00:04:03.272Z,100755.06
2023-04-16T00:06:30.439Z,100755.06
2023-04-16T00:08:57.391Z,100760.16
2023-04-16T00:11:24.284Z,100765.00
2023-04-16T00:13:51.150Z,100765.00
2023-04-16T00:16:18.027Z,100763.88
2023-04-16T00:18:44.832Z,100759.31
2023-04-16T00:21:11.856Z,100760.06
2023-04-16T00:23:38.656Z,100753.81
2023-04-16T00:26:05.431Z,100752.97
2023-04-16T00:28:32.196Z,100754.06
2023-04-16T00:30:59.599Z,100757.88
2023-04-16T00:33:26.546Z,100754.81
2023-04-16T00:35:53.448Z,100752.25
2023-04-16T00:38:20.942Z,100758.72
2023-04-16T00:40:47.751Z,100763.63
2023-04-16T00:43:25.598Z,100765.53
2023-04-16T00:45:53.423Z,100761.06
2023-04-16T00:48:20.785Z,100766.16
2023-04-16T00:50:48.522Z,100762.78
2023-04-16T00:53:15.661Z,100762.03
2023-04-16T00:55:42.783Z,100761.72
2023-04-16T00:58:09.693Z,100760.44
2023-04-16T01:00:36.565Z,100759.59
2023-04-16T01:03:03.772Z,100754.50
2023-04-16T01:05:31.128Z,100758.22
2023-04-16T01:08:01.354Z,100748.16
2023-04-16T01:10:28.341Z,100754.94
2023-04-16T01:12:55.398Z,100752.28
2023-04-16T01:15:22.369Z,100753.22
2023-04-16T01:17:49.326Z,100751.97
2023-04-16T01:20:16.257Z,100751.31
2023-04-16T01:22:43.170Z,100754.81
2023-04-16T01:25:13.881Z,100753.56
2023-04-16T01:27:40.813Z,100753.44
2023-04-16T01:30:08.414Z,100747.72
2023-04-16T01:32:46.646Z,100755.66
2023-04-16T01:35:13.532Z,100753.56
2023-04-16T01:37:40.534Z,100756.41
2023-04-16T01:40:08.227Z,100758.75
2023-04-16T01:42:35.089Z,100755.06
2023-04-16T01:45:02.052Z,100755.13
2023-04-16T01:47:30.710Z,100757.69
2023-04-16T01:49:57.548Z,100759.06
2023-04-16T01:52:24.463Z,100754.63
2023-04-16T01:54:52.018Z,100760.03
2023-04-16T01:57:19.070Z,100754.94
2023-04-16T01:59:46.361Z,100761.28
2023-04-16T02:02:14.965Z,100758.31
2023-04-16T02:04:43.210Z,100761.09
2023-04-16T02:07:10.533Z,100760.44
2023-04-16T02:09:38.051Z,100754.28
2023-04-16T02:12:06.837Z,100759.81
2023-04-16T02:14:34.269Z,100758.97
2023-04-16T02:17:01.830Z,100765.53
2023-04-16T02:19:37.319Z,100761.63
2023-04-16T02:22:04.861Z,100756.81
2023-04-16T02:24:31.817Z,100759.38
2023-04-16T02:27:00.231Z,100760.13
2023-04-16T02:29:27.071Z,100764.69
2023-04-16T02:32:01.309Z,100766.38
2023-04-16T02:34:30.297Z,100754.94
2023-04-16T02:36:58.507Z,100751.97
2023-04-16T02:39:25.608Z,100759.16
2023-04-16T02:41:53.430Z,100761.19
2023-04-16T02:44:21.187Z,100761.50
2023-04-16T02:46:48.464Z,100766.81
2023-04-16T02:49:16.003Z,100764.47
2023-04-16T02:51:42.783Z,100768.19
2023-04-16T02:54:09.706Z,100774.88
2023-04-16T02:56:36.497Z,100774.97
2023-04-16T02:59:03.477Z,100772.09
2023-04-16T03:01:30.453Z,100776.56
2023-04-16T03:03:57.549Z,100782.06
2023-04-16T03:06:24.518Z,100770.19
2023-04-16T03:08:51.345Z,100774.94
2023-04-16T03:11:18.262Z,100772.09
2023-04-16T03:13:45.196Z,100781.22
2023-04-16T03:16:12.181Z,100774.00
2023-04-16T03:18:39.417Z,100775.69
2023-04-16T03:21:06.440Z,100779.75
2023-04-16T03:23:33.745Z,100780.16
2023-04-16T03:26:00.642Z,100783.16
2023-04-16T03:28:28.112Z,100777.84
2023-04-16T03:30:54.976Z,100777.44
2023-04-16T03:33:22.905Z,100774.78
2023-04-16T03:35:58.710Z,100783.56
2023-04-16T03:38:28.622Z,100776.47
2023-04-16T03:40:57.267Z,100775.41
2023-04-16T03:43:24.284Z,100778.59
2023-04-16T03:45:51.086Z,100776.56
2023-04-16T03:48:20.929Z,100779.75
2023-04-16T03:50:48.209Z,100780.81
2023-04-16T03:53:16.742Z,100779.31
2023-04-16T03:55:43.668Z,100777.09
2023-04-16T03:58:10.798Z,100778.06
2023-04-16T04:00:37.752Z,100781.13
2023-04-16T04:03:12.787Z,100773.34
2023-04-16T04:05:41.207Z,100777.16
2023-04-16T04:08:10.930Z,100777.75
2023-04-16T04:10:43.335Z,100784.34
2023-04-16T04:24:06.693Z,100772.97
2023-04-16T04:26:39.013Z,100769.84
2023-04-16T04:34:34.532Z,100769.09
2023-04-16T04:37:06.429Z,100769.41
2023-04-16T04:39:33.344Z,100768.19
2023-04-16T04:42:03.455Z,100773.19
2023-04-16T04:44:31.002Z,100771.09
2023-04-16T04:46:58.972Z,100771.00
2023-04-16T04:49:27.357Z,100767.75
2023-04-16T04:51:54.372Z,100758.97
2023-04-16T04:54:21.613Z,100773.75
2023-04-16T04:56:49.652Z,100775.19
2023-04-16T04:59:16.870Z,100778.63
2023-04-16T05:01:44.705Z,100766.75
2023-04-16T05:04:11.974Z,100760.22
2023-04-16T05:06:39.083Z,100768.94
2023-04-16T05:09:06.233Z,100777.44
2023-04-16T05:11:35.093Z,100773.94
2023-04-16T05:14:02.690Z,100767.78
2023-04-16T05:16:29.730Z,100775.50
2023-04-16T05:22:00.732Z,100778.78
2023-04-16T05:24:28.948Z,100777.72
2023-04-16T05:26:57.724Z,100770.69
2023-04-16T05:29:25.043Z,100769.34
2023-04-16T05:31:53.924Z,100769.47
2023-04-16T05:34:30.403Z,100771.16
2023-04-16T05:36:59.290Z,100772.75
2023-04-16T05:39:26.448Z,100764.63
2023-04-16T05:41:53.232Z,100771.41
2023-04-16T05:44:20.531Z,100772.63
2023-04-16T05:46:48.473Z,100766.19
2023-04-16T05:49:20.194Z,100769.69
2023-04-16T05:51:50.880Z,100767.22
2023-04-16T05:54:22.956Z,100770.59
2023-04-16T05:56:55.540Z,100769.09
2023-04-16T05:59:23.064Z,100762.16
2023-04-16T06:04:35.970Z,100760.56
2023-04-16T06:07:03.546Z,100765.25
2023-04-16T06:09:30.755Z,100761.25
2023-04-16T06:12:01.948Z,100761.88
2023-04-16T06:14:29.277Z,100751.88
2023-04-16T06:16:56.495Z,100755.28
2023-04-16T06:19:23.914Z,100757.13
2023-04-16T06:21:52.279Z,100748.44
2023-04-16T06:24:19.679Z,100754.53
2023-04-16T06:26:46.742Z,100751.53
2023-04-16T06:29:14.010Z,100745.66
2023-04-16T06:34:26.694Z,100754.84
2023-04-16T06:36:56.947Z,100750.41
2023-04-16T06:39:24.364Z,100750.00
2023-04-16T06:41:51.354Z,100749.00
2023-04-16T06:44:18.188Z,100748.63
2023-04-16T06:46:45.567Z,100751.00
2023-04-16T06:49:12.775Z,100742.03
2023-04-16T06:51:41.894Z,100735.72
2023-04-16T06:54:08.915Z,100737.69
2023-04-16T06:56:37.556Z,100738.97
2023-04-16T06:59:04.929Z,100738.41
2023-04-16T07:01:31.971Z,100740.66
2023-04-16T07:03:59.242Z,100742.34
2023-04-16T07:06:27.259Z,100731.91
2023-04-16T07:08:54.086Z,100735.53
2023-04-16T07:11:21.334Z,100733.84
2023-04-16T07:13:48.253Z,100734.94
2023-04-16T07:16:15.088Z,100730.88
2023-04-16T07:18:41.988Z,100734.66
2023-04-16T07:21:08.876Z,100728.59
2023-04-16T07:23:35.888Z,100719.81
2023-04-16T07:26:02.840Z,100727.47
2023-04-16T07:28:29.712Z,100722.50
2023-04-16T07:30:56.638Z,100729.41
2023-04-16T07:33:24.321Z,100717.50
2023-04-16T07:35:51.749Z,100723.84
2023-04-16T07:38:19.250Z,100726.47
2023-04-16T07:40:46.182Z,100730.53
2023-04-16T07:43:13.768Z,100723.13
2023-04-16T07:45:41.410Z,100725.97
2023-04-16T07:48:08.494Z,100730.16
2023-04-16T07:50:35.423Z,100723.78
2023-04-16T07:53:20.991Z,100722.63
2023-04-16T07:55:48.201Z,100722.94
2023-04-16T07:58:15.123Z,100719.50
2023-04-16T08:00:41.979Z,100710.13
2023-04-16T08:03:09.033Z,100713.47
2023-04-16T08:05:36.062Z,100706.94
2023-04-16T08:08:03.139Z,100701.84
2023-04-16T08:10:30.089Z,100707.25
2023-04-16T08:12:57.059Z,100699.22
2023-04-16T08:15:24.049Z,100692.88
2023-04-16T08:17:51.067Z,100704.16
2023-04-16T08:20:19.354Z,100701.22
2023-04-16T08:22:46.606Z,100693.97
2023-04-16T08:25:13.536Z,100696.47
2023-04-16T08:27:40.737Z,100695.09
2023-04-16T08:30:08.037Z,100692.66
2023-04-16T08:32:34.972Z,100693.88
2023-04-16T08:35:02.299Z,100693.53
2023-04-16T08:37:29.877Z,100690.78
2023-04-16T08:39:56.707Z,100679.94
2023-04-16T08:42:49.023Z,100679.00
2023-04-16T08:45:17.407Z,100671.31
2023-04-16T08:47:46.263Z,100671.03
2023-04-16T08:50:14.904Z,100663.97
2023-04-16T08:53:08.174Z,100672.69
2023-04-16T08:55:38.680Z,100668.69
2023-04-16T08:58:16.364Z,100668.06
2023-04-16T09:00:43.719Z,100664.88
2023-04-16T09:03:11.302Z,100659.63
2023-04-16T09:05:39.718Z,100661.69
2023-04-16T09:08:06.967Z,100653.84
2023-04-16T09:10:34.337Z,100648.88
2023-04-16T09:13:01.440Z,100650.97
2023-04-16T09:15:30.643Z,100651.88
2023-04-16T09:17:59.925Z,100655.59
2023-04-16T09:20:28.117Z,100646.22
2023-04-16T09:22:57.247Z,100640.59
2023-04-16T09:25:25.093Z,100637.75
2023-04-16T09:27:52.434Z,100637.44
2023-04-16T09:30:22.434Z,100647.75
2023-04-16T09:32:50.393Z,100648.47
2023-04-16T09:35:18.589Z,100651.50
2023-04-16T09:37:55.006Z,100641.66
2023-04-16T09:40:27.517Z,100646.50
2023-04-16T09:43:03.125Z,100643.97
2023-04-16T09:45:31.736Z,100653.22
2023-04-16T09:48:03.315Z,100639.69
2023-04-16T09:50:30.632Z,100637.19
2023-04-16T09:53:02.560Z,100649.47
2023-04-16T09:55:36.305Z,100639.72
2023-04-16T09:58:03.497Z,100640.22
2023-04-16T10:00:31.728Z,100640.00
2023-04-16T10:03:07.692Z,100630.47
2023-04-16T10:05:36.057Z,100629.78
2023-04-16T10:08:03.815Z,100629.47
2023-04-16T10:10:30.906Z,100632.16
2023-04-16T10:12:59.625Z,100630.81
2023-04-16T10:15:27.525Z,100630.00
2023-04-16T10:17:54.906Z,100630.03
2023-04-16T10:20:23.054Z,100628.03
2023-04-16T10:22:50.190Z,100625.50
2023-04-16T10:25:17.634Z,100632.91
2023-04-16T10:27:56.886Z,100626.50
2023-04-16T10:30:24.631Z,100623.47
2023-04-16T10:32:52.189Z,100609.34
2023-04-16T10:35:22.421Z,100615.25
2023-04-16T10:37:52.492Z,100603.63
2023-04-16T10:40:29.096Z,100605.31
2023-04-16T10:42:59.701Z,100605.00
2023-04-16T10:45:47.666Z,100601.94
2023-04-16T10:51:03.759Z,100596.03
2023-04-16T10:56:22.737Z,100595.06
2023-04-16T11:07:21.360Z,100595.06
2023-04-16T11:12:48.875Z,100592.81
2023-04-16T11:17:57.660Z,100574.31
2023-04-16T11:23:15.486Z,100581.44
2023-04-16T11:25:44.614Z,100571.63
2023-04-16T11:28:12.999Z,100557.56
2023-04-16T11:30:41.846Z,100567.88
2023-04-16T11:33:11.753Z,100565.50
2023-04-16T11:35:52.231Z,100552.44
2023-04-16T11:38:19.534Z,100553.03
2023-04-16T11:40:51.325Z,100558.44
2023-04-16T11:43:27.475Z,100555.06
2023-04-16T11:45:58.916Z,100555.75
2023-04-16T11:51:07.670Z,100541.75
2023-04-16T12:04:43.759Z,100520.44
2023-04-16T12:10:08.680Z,100518.22
2023-04-16T12:12:37.967Z,100524.16
2023-04-16T12:23:27.729Z,100507.47
2023-04-16T12:25:57.622Z,100510.78
2023-04-16T12:28:43.416Z,100508.34
2023-04-16T12:34:04.547Z,100499.81
2023-04-16T12:36:41.160Z,100495.38
2023-04-16T12:39:09.859Z,100492.44
2023-04-16T12:41:38.730Z,100495.06
2023-04-16T12:47:11.296Z,100487.25
2023-04-16T12:55:03.594Z,100476.81
2023-04-16T12:57:39.986Z,100480.91
2023-04-16T13:00:08.640Z,100472.63
2023-04-16T13:02:40.539Z,100472.41
2023-04-16T13:05:08.773Z,100466.03
2023-04-16T13:13:01.125Z,100466.31
2023-04-16T13:15:28.285Z,100462.41
2023-04-16T13:17:56.569Z,100465.38
2023-04-16T13:20:24.636Z,100450.59
2023-04-16T13:22:51.886Z,100451.88
2023-04-16T13:25:19.766Z,100453.34
2023-04-16T13:27:56.264Z,100450.88
2023-04-16T13:30:24.038Z,100446.47
2023-04-16T13:32:51.353Z,100444.72
2023-04-16T13:38:00.649Z,100441.41
2023-04-16T13:40:28.736Z,100441.19
2023-04-16T13:45:37.572Z,100430.81
2023-04-16T13:48:05.219Z,100437.69
2023-04-16T13:50:32.864Z,100429.91
2023-04-16T13:53:00.220Z,100426.81
2023-04-16T13:55:32.259Z,100430.38
2023-04-16T13:58:00.059Z,100435.38
2023-04-16T14:00:37.102Z,100426.22
2023-04-16T14:03:15.458Z,100417.25
2023-04-16T14:11:11.944Z,100414.53
2023-04-16T14:13:39.588Z,100421.19
2023-04-16T14:18:49.335Z,100423.06
2023-04-16T15:41:18.029Z,100390.16
2023-04-16T15:43:46.612Z,100392.31
2023-04-16T15:46:19.789Z,100396.16
2023-04-16T15:48:47.291Z,100405.03
2023-04-16T15:51:16.047Z,100388.13
2023-04-16T15:53:48.565Z,100394.00
2023-04-16T15:56:20.375Z,100400.34
2023-04-16T16:06:50.754Z,100395.81
2023-04-16T16:12:00.715Z,100396.88
2023-04-16T16:14:27.697Z,100398.59
2023-04-16T16:16:54.877Z,100398.44
2023-04-16T16:22:02.990Z,100391.59
2023-04-16T16:24:32.161Z,100393.41
2023-04-16T16:27:03.557Z,100400.81
2023-04-16T16:29:31.918Z,100392.09
2023-04-16T16:31:59.213Z,100391.06
2023-04-16T16:34:28.068Z,100395.28
2023-04-16T16:36:55.144Z,100406.56
2023-04-16T16:39:26.389Z,100408.91
2023-04-16T16:41:53.345Z,100395.81
2023-04-16T16:44:20.759Z,100393.78
2023-04-16T16:47:06.711Z,100393.78
2023-04-16T16:49:33.709Z,100395.00
2023-04-16T16:52:03.012Z,100399.91
2023-04-16T16:54:29.817Z,100400.06
2023-04-16T16:56:57.059Z,100397.03
2023-04-16T16:59:24.310Z,100405.94
2023-04-16T17:01:51.438Z,100393.66
2023-04-16T17:04:20.345Z,100396.53
2023-04-16T17:06:48.932Z,100396.03
2023-04-16T17:09:16.973Z,100404.28
2023-04-16T17:11:44.109Z,100407.66
2023-04-16T17:14:30.419Z,100396.56
2023-04-16T17:17:16.261Z,100403.63
2023-04-16T17:19:44.230Z,100400.94
2023-04-16T17:22:11.267Z,100408.34
2023-04-16T17:24:38.693Z,100400.94
2023-04-16T17:27:24.905Z,100400.28
2023-04-16T17:30:11.139Z,100404.97
2023-04-16T17:32:38.404Z,100394.91
2023-04-16T17:35:24.252Z,100394.56
2023-04-16T17:37:51.816Z,100394.56
2023-04-16T17:40:18.844Z,100400.97
2023-04-16T17:42:46.876Z,100394.75
2023-04-16T17:45:13.857Z,100396.94
2023-04-16T17:47:40.965Z,100394.41
2023-04-16T17:50:08.617Z,100393.91
2023-04-16T17:52:37.583Z,100394.25
2023-04-16T17:55:05.233Z,100392.41
2023-04-16T17:57:32.443Z,100393.41
2023-04-16T18:00:17.927Z,100391.72
2023-04-16T18:02:45.507Z,100395.94
2023-04-16T18:05:31.372Z,100377.31
2023-04-16T18:07:58.289Z,100386.34
2023-04-16T18:10:25.319Z,100379.81
2023-04-16T18:12:52.234Z,100383.19
2023-04-16T18:15:19.264Z,100390.22
2023-04-16T18:17:46.491Z,100389.19
2023-04-16T18:20:17.023Z,100394.91
2023-04-16T18:22:43.932Z,100385.69
2023-04-16T18:25:34.502Z,100382.34
2023-04-16T18:28:02.420Z,100376.63
2023-04-16T18:30:49.541Z,100374.09
2023-04-16T18:35:46.406Z,100378.13
2023-04-16T18:38:16.456Z,100371.44
2023-04-16T18:40:43.270Z,100370.03
2023-04-16T18:43:10.151Z,100374.59
2023-04-16T18:45:37.243Z,100370.38
2023-04-16T18:48:04.314Z,100369.22
2023-04-16T18:50:31.460Z,100375.56
2023-04-16T18:52:58.317Z,100370.03
2023-04-16T18:55:25.355Z,100371.72
2023-04-16T18:57:52.335Z,100369.72
2023-04-16T19:00:20.129Z,100369.88
2023-04-16T19:02:47.852Z,100368.66
2023-04-16T19:05:14.840Z,100368.66
2023-04-16T19:07:41.964Z,100364.47
2023-04-16T19:10:09.103Z,100361.97
2023-04-16T19:12:36.261Z,100372.19
2023-04-16T19:15:03.225Z,100369.69
2023-04-16T19:17:30.562Z,100359.59
2023-04-16T19:19:57.497Z,100367.66
2023-04-16T19:22:24.366Z,100367.34
2023-04-16T19:24:51.507Z,100360.41
2023-04-16T19:27:18.454Z,100354.69
2023-04-16T19:29:46.864Z,100358.88
2023-04-16T19:32:14.560Z,100369.44
2023-04-16T19:34:41.615Z,100362.53
2023-04-16T19:37:08.489Z,100365.59
2023-04-16T19:39:35.585Z,100362.53
2023-04-16T19:42:02.770Z,100354.16
2023-04-16T19:44:29.694Z,100352.94
2023-04-16T19:46:56.702Z,100357.63
2023-04-16T19:49:33.770Z,100366.81
2023-04-16T19:52:01.612Z,100367.16
2023-04-16T19:54:28.938Z,100363.59
2023-04-16T19:56:57.255Z,100373.84
2023-04-16T19:59:25.202Z,100370.63
2023-04-16T20:01:52.044Z,100374.50
2023-04-16T20:04:19.048Z,100366.94
2023-04-16T20:06:46.108Z,100371.59
2023-04-16T20:09:13.228Z,100371.47
2023-04-16T20:11:40.243Z,100362.59
2023-04-16T20:14:07.064Z,100368.09
2023-04-16T20:16:34.074Z,100368.94
2023-04-16T20:19:05.258Z,100366.09
2023-04-16T20:21:34.153Z,100364.41
2023-04-16T20:24:00.988Z,100362.72
2023-04-16T20:26:28.551Z,100369.75
2023-04-16T20:28:55.536Z,100364.94
2023-04-16T20:31:22.539Z,100365.75
2023-04-16T20:33:49.465Z,100367.06
2023-04-16T20:36:16.321Z,100360.03
2023-04-16T20:38:43.792Z,100367.06
2023-04-16T20:41:11.146Z,100357.22
2023-04-16T20:43:40.940Z,100360.25
2023-04-16T20:46:08.648Z,100358.41
2023-04-16T20:48:35.639Z,100362.59
2023-04-16T20:51:03.826Z,100364.09
2023-04-16T20:53:34.004Z,100358.84
2023-04-16T20:56:01.087Z,100360.69
2023-04-16T20:58:28.071Z,100355.63
2023-04-16T21:00:55.771Z,100362.72
2023-04-16T21:03:23.253Z,100352.47
2023-04-16T21:05:53.885Z,100359.38
2023-04-16T21:08:21.165Z,100355.38
2023-04-16T21:10:48.179Z,100358.38
2023-04-16T21:13:15.202Z,100359.69
2023-04-16T21:15:44.963Z,100358.31
2023-04-16T21:18:12.002Z,100358.66
2023-04-16T21:20:39.245Z,100358.97
2023-04-16T21:23:07.034Z,100349.09
2023-04-16T21:25:33.941Z,100361.47
2023-04-16T21:28:00.882Z,100349.19
2023-04-16T21:30:27.858Z,100359.91
2023-04-16T21:32:55.119Z,100348.53
2023-04-16T21:35:21.991Z,100359.19
2023-04-16T21:37:48.997Z,100364.03
2023-04-16T21:40:15.980Z,100364.19
2023-04-16T21:42:42.985Z,100369.84
2023-04-16T21:45:10.544Z,100374.25
2023-04-16T21:47:37.847Z,100362.19
2023-04-16T21:50:04.941Z,100371.59
2023-04-16T21:52:33.033Z,100369.25
2023-04-16T21:55:00.517Z,100372.53
2023-04-16T21:57:27.427Z,100373.72
2023-04-16T21:59:54.253Z,100366.19
2023-04-16T22:02:22.361Z,100375.59
2023-04-16T22:04:50.742Z,100368.88
2023-04-16T22:07:20.853Z,100373.53
2023-04-16T22:09:47.725Z,100373.72
2023-04-16T22:12:14.630Z,100372.03
2023-04-16T22:14:49.082Z,100370.13
2023-04-16T22:17:23.902Z,100364.16
2023-04-16T22:19:51.041Z,100371.88
2023-04-16T22:22:18.740Z,100365.97
2023-04-16T22:24:46.809Z,100369.81
2023-04-16T22:27:13.632Z,100365.78
2023-04-16T22:29:40.545Z,100367.44
2023-04-16T22:32:07.425Z,100367.91
2023-04-16T22:34:34.378Z,100375.44
2023-04-16T22:37:03.138Z,100381.94
2023-04-16T22:39:30.975Z,100373.69
2023-04-16T22:41:57.885Z,100372.13
2023-04-16T22:44:24.895Z,100376.97
2023-04-16T22:46:52.075Z,100378.41
2023-04-16T22:49:18.969Z,100377.91
2023-04-16T22:51:45.941Z,100375.69
2023-04-16T22:54:13.987Z,100375.97
2023-04-16T22:56:41.193Z,100379.66
2023-04-16T22:59:08.291Z,100379.94
2023-04-16T23:01:35.196Z,100372.38
2023-04-16T23:04:02.275Z,100369.88
2023-04-16T23:06:29.271Z,100374.22
2023-04-16T23:08:56.204Z,100373.69
2023-04-16T23:11:23.141Z,100363.75
2023-04-16T23:13:49.942Z,100373.28
2023-04-16T23:16:16.916Z,100369.09
2023-04-16T23:18:43.855Z,100375.00
2023-04-16T23:21:11.152Z,100373.00
2023-04-16T23:23:38.039Z,100366.81
2023-04-16T23:26:04.957Z,100362.75
2023-04-16T23:28:31.796Z,100364.88
2023-04-16T23:30:58.760Z,100365.19
2023-04-16T23:33:25.836Z,100367.03
2023-04-16T23:35:52.908Z,100371.06
2023-04-16T23:38:19.797Z,100369.41
2023-04-16T23:40:46.655Z,100367.72
2023-04-16T23:43:13.550Z,100359.41
2023-04-16T23:45:40.972Z,100364.44
2023-04-16T23:48:07.850Z,100355.19
2023-04-16T23:50:34.702Z,100357.31
2023-04-16T23:53:01.492Z,100355.34
2023-04-16T23:55:28.422Z,100357.00
2023-04-16T23:57:55.393Z,100363.03
